sensor_id;sensor_type;location;lat;lon;timestamp;P1;durP1;ratioP1;P2;durP2;ratioP2
56680;SDS011;42558;52.388;13.390;2022-11-02T00:03:48;20.14;;;10.26;;
56680;SDS011;42558;52.388;13.390;2022-11-02T00:06:18;17.29;;;11.02;;
56680;SDS011;42558;52.388;13.390;2022-11-02T00:08:48;21.66;;;12.16;;
56680;SDS011;42558;52.388;13.390;2022-11-02T00:11:18;19.19;;;11.78;;
56680;SDS011;42558;52.388;13.390;2022-11-02T00:13:47;15.58;;;10.07;;
56680;SDS011;42558;52.388;13.390;2022-11-02T00:16:18;18.62;;;11.78;;
56680;SDS011;42558;52.388;13.390;2022-11-02T00:18:52;18.62;;;11.40;;
56680;SDS011;42558;52.388;13.390;2022-11-02T00:21:26;21.47;;;10.83;;
56680;SDS011;42558;52.388;13.390;2022-11-02T00:23:56;17.67;;;11.02;;
56680;SDS011;42558;52.388;13.390;2022-11-02T00:26:29;18.62;;;10.45;;
56680;SDS011;42558;52.388;13.390;2022-11-02T00:29:05;19.19;;;10.83;;
56680;SDS011;42558;52.388;13.390;2022-11-02T00:31:36;16.72;;;11.02;;
56680;SDS011;42558;52.388;13.390;2022-11-02T00:34:09;17.86;;;9.88;;
56680;SDS011;42558;52.388;13.390;2022-11-02T00:36:38;15.96;;;10.64;;
56680;SDS011;42558;52.388;13.390;2022-11-02T00:39:08;16.53;;;10.83;;
56680;SDS011;42558;52.388;13.390;2022-11-02T00:41:38;19.19;;;10.83;;
56680;SDS011;42558;52.388;13.390;2022-11-02T00:44:08;18.81;;;10.26;;
56680;SDS011;42558;52.388;13.390;2022-11-02T00:46:37;19.19;;;11.02;;
56680;SDS011;42558;52.388;13.390;2022-11-02T00:49:07;24.51;;;11.78;;
56680;SDS011;42558;52.388;13.390;2022-11-02T00:51:37;17.48;;;11.59;;
56680;SDS011;42558;52.388;13.390;2022-11-02T00:54:06;20.90;;;11.21;;
56680;SDS011;42558;52.388;13.390;2022-11-02T00:56:36;15.77;;;10.45;;
56680;SDS011;42558;52.388;13.390;2022-11-02T00:59:07;15.96;;;10.83;;
56680;SDS011;42558;52.388;13.390;2022-11-02T01:01:37;17.48;;;10.45;;
56680;SDS011;42558;52.388;13.390;2022-11-02T01:04:07;16.72;;;9.50;;
56680;SDS011;42558;52.388;13.390;2022-11-02T01:06:37;16.53;;;10.83;;
56680;SDS011;42558;52.388;13.390;2022-11-02T01:09:07;15.58;;;9.50;;
56680;SDS011;42558;52.388;13.390;2022-11-02T01:11:39;18.62;;;10.26;;
56680;SDS011;42558;52.388;13.390;2022-11-02T01:14:09;17.29;;;10.45;;
56680;SDS011;42558;52.388;13.390;2022-11-02T01:16:39;19.19;;;10.45;;
56680;SDS011;42558;52.388;13.390;2022-11-02T01:19:10;19.38;;;9.88;;
56680;SDS011;42558;52.388;13.390;2022-11-02T01:21:40;15.39;;;9.88;;
56680;SDS011;42558;52.388;13.390;2022-11-02T01:24:10;15.77;;;9.69;;
56680;SDS011;42558;52.388;13.390;2022-11-02T01:26:39;21.09;;;10.07;;
56680;SDS011;42558;52.388;13.390;2022-11-02T01:29:09;16.15;;;9.88;;
56680;SDS011;42558;52.388;13.390;2022-11-02T01:31:39;14.82;;;8.93;;
56680;SDS011;42558;52.388;13.390;2022-11-02T01:34:10;13.11;;;8.93;;
56680;SDS011;42558;52.388;13.390;2022-11-02T01:36:40;18.81;;;9.69;;
56680;SDS011;42558;52.388;13.390;2022-11-02T01:39:14;14.06;;;8.36;;
56680;SDS011;42558;52.388;13.390;2022-11-02T01:41:44;23.75;;;9.31;;
56680;SDS011;42558;52.388;13.390;2022-11-02T01:44:34;17.48;;;9.69;;
56680;SDS011;42558;52.388;13.390;2022-11-02T01:47:12;14.25;;;8.55;;
56680;SDS011;42558;52.388;13.390;2022-11-02T01:49:50;14.82;;;8.93;;
56680;SDS011;42558;52.388;13.390;2022-11-02T01:52:33;15.39;;;8.93;;
56680;SDS011;42558;52.388;13.390;2022-11-02T01:55:26;13.30;;;8.36;;
56680;SDS011;42558;52.388;13.390;2022-11-02T01:58:09;15.20;;;8.36;;
56680;SDS011;42558;52.388;13.390;2022-11-02T02:00:38;14.82;;;8.55;;
56680;SDS011;42558;52.388;13.390;2022-11-02T02:03:12;15.20;;;8.55;;
56680;SDS011;42558;52.388;13.390;2022-11-02T02:06:07;19.00;;;8.36;;
56680;SDS011;42558;52.388;13.390;2022-11-02T02:08:42;16.53;;;8.17;;
56680;SDS011;42558;52.388;13.390;2022-11-02T02:11:34;14.63;;;8.36;;
56680;SDS011;42558;52.388;13.390;2022-11-02T02:14:23;14.63;;;8.17;;
56680;SDS011;42558;52.388;13.390;2022-11-02T02:20:30;16.53;;;8.93;;
56680;SDS011;42558;52.388;13.390;2022-11-02T02:29:25;15.58;;;6.84;;
56680;SDS011;42558;52.388;13.390;2022-11-02T02:32:25;17.29;;;7.60;;
56680;SDS011;42558;52.388;13.390;2022-11-02T02:35:26;14.25;;;7.41;;
56680;SDS011;42558;52.388;13.390;2022-11-02T02:38:06;13.68;;;7.60;;
56680;SDS011;42558;52.388;13.390;2022-11-02T02:40:48;18.62;;;7.98;;
56680;SDS011;42558;52.388;13.390;2022-11-02T02:43:39;13.68;;;6.84;;
56680;SDS011;42558;52.388;13.390;2022-11-02T02:46:19;15.39;;;7.03;;
56680;SDS011;42558;52.388;13.390;2022-11-02T02:48:55;14.25;;;7.79;;
56680;SDS011;42558;52.388;13.390;2022-11-02T02:51:29;12.16;;;6.65;;
56680;SDS011;42558;52.388;13.390;2022-11-02T02:54:07;11.21;;;6.27;;
56680;SDS011;42558;52.388;13.390;2022-11-02T02:56:53;13.87;;;6.46;;
56680;SDS011;42558;52.388;13.390;2022-11-02T02:59:36;13.49;;;6.08;;
56680;SDS011;42558;52.388;13.390;2022-11-02T03:02:23;12.16;;;6.46;;
56680;SDS011;42558;52.388;13.390;2022-11-02T03:04:57;12.54;;;5.51;;
56680;SDS011;42558;52.388;13.390;2022-11-02T03:07:32;10.83;;;5.32;;
56680;SDS011;42558;52.388;13.390;2022-11-02T03:10:24;11.02;;;5.70;;
56680;SDS011;42558;52.388;13.390;2022-11-02T03:22:12;11.78;;;5.51;;
56680;SDS011;42558;52.388;13.390;2022-11-02T03:25:19;11.02;;;5.51;;
56680;SDS011;42558;52.388;13.390;2022-11-02T03:28:59;10.26;;;5.89;;
56680;SDS011;42558;52.388;13.390;2022-11-02T03:42:42;9.69;;;4.94;;
56680;SDS011;42558;52.388;13.390;2022-11-02T03:45:17;15.96;;;6.08;;
56680;SDS011;42558;52.388;13.390;2022-11-02T03:47:55;11.21;;;5.32;;
56680;SDS011;42558;52.388;13.390;2022-11-02T03:50:29;10.45;;;4.75;;
56680;SDS011;42558;52.388;13.390;2022-11-02T03:53:06;9.12;;;4.94;;
56680;SDS011;42558;52.388;13.390;2022-11-02T03:55:47;11.59;;;4.56;;
56680;SDS011;42558;52.388;13.390;2022-11-02T03:58:21;16.91;;;5.70;;
56680;SDS011;42558;52.388;13.390;2022-11-02T04:01:02;11.02;;;4.56;;
56680;SDS011;42558;52.388;13.390;2022-11-02T04:03:40;19.19;;;6.08;;
56680;SDS011;42558;52.388;13.390;2022-11-02T04:06:11;13.30;;;5.32;;
56680;SDS011;42558;52.388;13.390;2022-11-02T04:08:43;12.35;;;5.13;;
56680;SDS011;42558;52.388;13.390;2022-11-02T04:11:14;11.78;;;4.37;;
56680;SDS011;42558;52.388;13.390;2022-11-02T04:14:08;9.12;;;4.56;;
56680;SDS011;42558;52.388;13.390;2022-11-02T04:16:53;15.58;;;5.89;;
56680;SDS011;42558;52.388;13.390;2022-11-02T04:19:43;11.02;;;4.56;;
56680;SDS011;42558;52.388;13.390;2022-11-02T04:22:17;15.20;;;5.32;;
56680;SDS011;42558;52.388;13.390;2022-11-02T04:25:06;12.92;;;4.75;;
56680;SDS011;42558;52.388;13.390;2022-11-02T04:27:52;11.59;;;5.32;;
56680;SDS011;42558;52.388;13.390;2022-11-02T04:30:22;14.63;;;4.56;;
56680;SDS011;42558;52.388;13.390;2022-11-02T04:32:50;13.87;;;5.13;;
56680;SDS011;42558;52.388;13.390;2022-11-02T04:35:38;15.01;;;5.51;;
56680;SDS011;42558;52.388;13.390;2022-11-02T04:38:08;11.40;;;4.56;;
56680;SDS011;42558;52.388;13.390;2022-11-02T04:40:59;11.78;;;5.70;;
56680;SDS011;42558;52.388;13.390;2022-11-02T04:43:46;8.93;;;4.37;;
56680;SDS011;42558;52.388;13.390;2022-11-02T04:46:17;12.73;;;4.56;;
56680;SDS011;42558;52.388;13.390;2022-11-02T04:48:47;11.78;;;4.94;;
56680;SDS011;42558;52.388;13.390;2022-11-02T04:51:17;11.59;;;4.75;;
56680;SDS011;42558;52.388;13.390;2022-11-02T04:53:52;13.68;;;4.94;;
56680;SDS011;42558;52.388;13.390;2022-11-02T04:56:24;8.93;;;4.56;;
56680;SDS011;42558;52.388;13.390;2022-11-02T04:58:55;13.68;;;4.37;;
56680;SDS011;42558;52.388;13.390;2022-11-02T05:01:27;13.11;;;4.75;;
56680;SDS011;42558;52.388;13.390;2022-11-02T05:03:56;11.21;;;4.56;;
56680;SDS011;42558;52.388;13.390;2022-11-02T05:06:24;11.97;;;4.75;;
56680;SDS011;42558;52.388;13.390;2022-11-02T05:08:54;12.73;;;4.18;;
56680;SDS011;42558;52.388;13.390;2022-11-02T05:11:24;14.25;;;4.56;;
56680;SDS011;42558;52.388;13.390;2022-11-02T05:13:54;12.16;;;4.18;;
56680;SDS011;42558;52.388;13.390;2022-11-02T05:16:23;11.78;;;4.56;;
56680;SDS011;42558;52.388;13.390;2022-11-02T05:18:53;14.63;;;4.56;;
56680;SDS011;42558;52.388;13.390;2022-11-02T05:21:23;11.97;;;3.61;;
56680;SDS011;42558;52.388;13.390;2022-11-02T05:23:53;13.30;;;3.61;;
56680;SDS011;42558;52.388;13.390;2022-11-02T05:26:22;14.44;;;3.80;;
56680;SDS011;42558;52.388;13.390;2022-11-02T05:28:52;10.07;;;3.61;;
56680;SDS011;42558;52.388;13.390;2022-11-02T05:31:22;10.07;;;3.61;;
56680;SDS011;42558;52.388;13.390;2022-11-02T05:33:51;11.40;;;3.99;;
56680;SDS011;42558;52.388;13.390;2022-11-02T05:36:21;14.06;;;4.37;;
56680;SDS011;42558;52.388;13.390;2022-11-02T05:38:55;11.78;;;4.18;;
56680;SDS011;42558;52.388;13.390;2022-11-02T05:41:22;12.73;;;3.99;;
56680;SDS011;42558;52.388;13.390;2022-11-02T05:43:52;11.40;;;3.99;;
56680;SDS011;42558;52.388;13.390;2022-11-02T05:46:21;11.21;;;3.61;;
56680;SDS011;42558;52.388;13.390;2022-11-02T05:48:51;11.78;;;4.56;;
56680;SDS011;42558;52.388;13.390;2022-11-02T05:51:21;12.16;;;3.23;;
56680;SDS011;42558;52.388;13.390;2022-11-02T05:53:50;14.82;;;3.99;;
56680;SDS011;42558;52.388;13.390;2022-11-02T05:56:20;12.73;;;3.99;;
56680;SDS011;42558;52.388;13.390;2022-11-02T05:58:54;14.06;;;3.61;;
56680;SDS011;42558;52.388;13.390;2022-11-02T06:01:22;17.29;;;4.56;;
56680;SDS011;42558;52.388;13.390;2022-11-02T06:03:52;14.82;;;4.37;;
56680;SDS011;42558;52.388;13.390;2022-11-02T06:06:22;14.63;;;3.99;;
56680;SDS011;42558;52.388;13.390;2022-11-02T06:08:51;11.21;;;3.99;;
56680;SDS011;42558;52.388;13.390;2022-11-02T06:11:21;10.26;;;4.56;;
56680;SDS011;42558;52.388;13.390;2022-11-02T06:13:51;9.50;;;4.18;;
56680;SDS011;42558;52.388;13.390;2022-11-02T06:16:21;17.67;;;4.94;;
56680;SDS011;42558;52.388;13.390;2022-11-02T06:18:51;12.16;;;3.80;;
56680;SDS011;42558;52.388;13.390;2022-11-02T06:21:21;9.69;;;3.80;;
56680;SDS011;42558;52.388;13.390;2022-11-02T06:23:51;13.49;;;4.18;;
56680;SDS011;42558;52.388;13.390;2022-11-02T06:26:20;10.45;;;3.99;;
56680;SDS011;42558;52.388;13.390;2022-11-02T06:28:50;12.16;;;4.56;;
56680;SDS011;42558;52.388;13.390;2022-11-02T06:31:20;11.59;;;4.56;;
56680;SDS011;42558;52.388;13.390;2022-11-02T06:33:50;11.78;;;3.99;;
56680;SDS011;42558;52.388;13.390;2022-11-02T06:36:20;12.16;;;4.56;;
56680;SDS011;42558;52.388;13.390;2022-11-02T06:38:50;16.15;;;4.75;;
56680;SDS011;42558;52.388;13.390;2022-11-02T06:41:19;12.92;;;3.80;;
56680;SDS011;42558;52.388;13.390;2022-11-02T06:43:49;15.01;;;4.37;;
56680;SDS011;42558;52.388;13.390;2022-11-02T06:46:19;16.91;;;4.75;;
56680;SDS011;42558;52.388;13.390;2022-11-02T06:48:49;14.82;;;4.37;;
56680;SDS011;42558;52.388;13.390;2022-11-02T06:51:18;13.49;;;3.99;;
56680;SDS011;42558;52.388;13.390;2022-11-02T06:53:48;14.82;;;4.18;;
56680;SDS011;42558;52.388;13.390;2022-11-02T06:56:18;14.63;;;4.56;;
56680;SDS011;42558;52.388;13.390;2022-11-02T06:58:48;18.24;;;3.80;;
56680;SDS011;42558;52.388;13.390;2022-11-02T07:01:18;12.54;;;4.37;;
56680;SDS011;42558;52.388;13.390;2022-11-02T07:03:48;12.92;;;4.75;;
56680;SDS011;42558;52.388;13.390;2022-11-02T07:06:18;13.11;;;4.75;;
56680;SDS011;42558;52.388;13.390;2022-11-02T07:08:48;14.82;;;3.99;;
56680;SDS011;42558;52.388;13.390;2022-11-02T07:11:18;15.01;;;4.75;;
56680;SDS011;42558;52.388;13.390;2022-11-02T07:13:49;11.21;;;4.18;;
56680;SDS011;42558;52.388;13.390;2022-11-02T07:16:18;19.00;;;4.37;;
56680;SDS011;42558;52.388;13.390;2022-11-02T07:18:48;16.15;;;4.56;;
56680;SDS011;42558;52.388;13.390;2022-11-02T07:21:18;15.96;;;4.75;;
56680;SDS011;42558;52.388;13.390;2022-11-02T07:23:49;13.49;;;4.37;;
56680;SDS011;42558;52.388;13.390;2022-11-02T07:26:18;13.87;;;5.32;;
56680;SDS011;42558;52.388;13.390;2022-11-02T07:28:48;16.34;;;3.99;;
56680;SDS011;42558;52.388;13.390;2022-11-02T07:31:21;11.02;;;4.56;;
56680;SDS011;42558;52.388;13.390;2022-11-02T07:33:49;11.21;;;4.18;;
56680;SDS011;42558;52.388;13.390;2022-11-02T07:36:18;10.83;;;4.37;;
56680;SDS011;42558;52.388;13.390;2022-11-02T07:38:48;11.21;;;4.18;;
56680;SDS011;42558;52.388;13.390;2022-11-02T07:41:18;13.11;;;4.37;;
56680;SDS011;42558;52.388;13.390;2022-11-02T07:43:48;16.91;;;4.18;;
56680;SDS011;42558;52.388;13.390;2022-11-02T07:46:18;11.97;;;4.18;;
56680;SDS011;42558;52.388;13.390;2022-11-02T07:48:48;12.16;;;4.18;;
56680;SDS011;42558;52.388;13.390;2022-11-02T07:51:17;13.30;;;4.75;;
56680;SDS011;42558;52.388;13.390;2022-11-02T07:53:47;10.64;;;4.18;;
56680;SDS011;42558;52.388;13.390;2022-11-02T07:56:17;13.30;;;3.42;;
56680;SDS011;42558;52.388;13.390;2022-11-02T07:58:46;12.54;;;4.18;;
56680;SDS011;42558;52.388;13.390;2022-11-02T08:01:16;11.59;;;4.37;;
56680;SDS011;42558;52.388;13.390;2022-11-02T08:03:46;12.54;;;4.18;;
56680;SDS011;42558;52.388;13.390;2022-11-02T08:06:16;17.48;;;3.99;;
56680;SDS011;42558;52.388;13.390;2022-11-02T08:08:46;10.45;;;3.80;;
56680;SDS011;42558;52.388;13.390;2022-11-02T08:11:15;17.10;;;4.94;;
56680;SDS011;42558;52.388;13.390;2022-11-02T08:13:45;11.78;;;4.18;;
56680;SDS011;42558;52.388;13.390;2022-11-02T08:16:15;16.72;;;4.75;;
56680;SDS011;42558;52.388;13.390;2022-11-02T08:18:44;11.40;;;3.42;;
56680;SDS011;42558;52.388;13.390;2022-11-02T08:21:14;14.82;;;3.99;;
56680;SDS011;42558;52.388;13.390;2022-11-02T08:23:44;11.40;;;4.37;;
56680;SDS011;42558;52.388;13.390;2022-11-02T08:26:14;13.30;;;3.42;;
56680;SDS011;42558;52.388;13.390;2022-11-02T08:28:43;9.50;;;3.99;;
56680;SDS011;42558;52.388;13.390;2022-11-02T08:31:16;14.63;;;3.42;;
56680;SDS011;42558;52.388;13.390;2022-11-02T08:33:45;11.59;;;4.75;;
56680;SDS011;42558;52.388;13.390;2022-11-02T08:36:15;12.16;;;3.42;;
56680;SDS011;42558;52.388;13.390;2022-11-02T08:38:45;11.21;;;3.80;;
56680;SDS011;42558;52.388;13.390;2022-11-02T08:41:14;14.63;;;3.42;;
56680;SDS011;42558;52.388;13.390;2022-11-02T08:43:47;9.31;;;2.85;;
56680;SDS011;42558;52.388;13.390;2022-11-02T08:46:17;16.15;;;4.37;;
56680;SDS011;42558;52.388;13.390;2022-11-02T08:48:47;12.35;;;3.99;;
56680;SDS011;42558;52.388;13.390;2022-11-02T08:51:17;11.59;;;2.85;;
56680;SDS011;42558;52.388;13.390;2022-11-02T08:53:47;12.35;;;3.23;;
56680;SDS011;42558;52.388;13.390;2022-11-02T08:56:20;10.26;;;2.85;;
56680;SDS011;42558;52.388;13.390;2022-11-02T08:58:47;10.64;;;3.42;;
56680;SDS011;42558;52.388;13.390;2022-11-02T09:01:17;18.62;;;5.13;;
56680;SDS011;42558;52.388;13.390;2022-11-02T09:03:47;15.96;;;4.18;;
56680;SDS011;42558;52.388;13.390;2022-11-02T09:06:17;14.82;;;3.61;;
56680;SDS011;42558;52.388;13.390;2022-11-02T09:08:47;14.25;;;3.42;;
56680;SDS011;42558;52.388;13.390;2022-11-02T09:11:20;17.48;;;4.37;;
56680;SDS011;42558;52.388;13.390;2022-11-02T09:13:47;8.55;;;3.04;;
56680;SDS011;42558;52.388;13.390;2022-11-02T09:16:25;10.64;;;3.61;;
56680;SDS011;42558;52.388;13.390;2022-11-02T09:18:54;14.25;;;3.42;;
56680;SDS011;42558;52.388;13.390;2022-11-02T09:21:24;19.19;;;3.99;;
56680;SDS011;42558;52.388;13.390;2022-11-02T09:23:51;13.87;;;3.23;;
56680;SDS011;42558;52.388;13.390;2022-11-02T09:26:18;12.35;;;3.23;;
56680;SDS011;42558;52.388;13.390;2022-11-02T09:28:48;16.34;;;3.23;;
56680;SDS011;42558;52.388;13.390;2022-11-02T09:31:18;12.92;;;3.80;;
56680;SDS011;42558;52.388;13.390;2022-11-02T09:33:48;15.20;;;3.61;;
56680;SDS011;42558;52.388;13.390;2022-11-02T09:36:17;16.72;;;4.37;;
56680;SDS011;42558;52.388;13.390;2022-11-02T09:38:47;15.39;;;2.85;;
56680;SDS011;42558;52.388;13.390;2022-11-02T09:41:29;16.15;;;3.23;;
56680;SDS011;42558;52.388;13.390;2022-11-02T09:44:14;9.31;;;2.47;;
56680;SDS011;42558;52.388;13.390;2022-11-02T09:46:50;16.15;;;2.85;;
56680;SDS011;42558;52.388;13.390;2022-11-02T09:49:41;14.63;;;3.23;;
56680;SDS011;42558;52.388;13.390;2022-11-02T09:52:21;14.06;;;3.80;;
56680;SDS011;42558;52.388;13.390;2022-11-02T09:54:57;11.21;;;2.47;;
56680;SDS011;42558;52.388;13.390;2022-11-02T09:57:32;13.30;;;2.85;;
56680;SDS011;42558;52.388;13.390;2022-11-02T10:00:00;8.74;;;2.66;;
56680;SDS011;42558;52.388;13.390;2022-11-02T10:02:46;14.82;;;3.23;;
56680;SDS011;42558;52.388;13.390;2022-11-02T10:08:40;14.82;;;2.85;;
56680;SDS011;42558;52.388;13.390;2022-11-02T10:11:34;10.64;;;2.66;;
56680;SDS011;42558;52.388;13.390;2022-11-02T10:14:31;11.02;;;2.47;;
56680;SDS011;42558;52.388;13.390;2022-11-02T10:17:32;11.78;;;3.23;;
56680;SDS011;42558;52.388;13.390;2022-11-02T10:20:40;11.59;;;2.66;;
56680;SDS011;42558;52.388;13.390;2022-11-02T10:23:30;12.73;;;3.23;;
56680;SDS011;42558;52.388;13.390;2022-11-02T10:26:04;11.97;;;2.47;;
56680;SDS011;42558;52.388;13.390;2022-11-02T10:28:37;11.97;;;2.66;;
56680;SDS011;42558;52.388;13.390;2022-11-02T10:31:21;9.69;;;2.66;;
56680;SDS011;42558;52.388;13.390;2022-11-02T10:33:52;16.34;;;3.23;;
56680;SDS011;42558;52.388;13.390;2022-11-02T10:39:50;8.93;;;2.47;;
56680;SDS011;42558;52.388;13.390;2022-11-02T10:51:52;9.88;;;2.28;;
56680;SDS011;42558;52.388;13.390;2022-11-02T10:54:22;13.30;;;3.23;;
56680;SDS011;42558;52.388;13.390;2022-11-02T10:57:12;15.39;;;2.66;;
56680;SDS011;42558;52.388;13.390;2022-11-02T11:00:26;13.87;;;3.04;;
56680;SDS011;42558;52.388;13.390;2022-11-02T11:03:02;10.64;;;3.23;;
56680;SDS011;42558;52.388;13.390;2022-11-02T11:05:34;12.73;;;2.47;;
56680;SDS011;42558;52.388;13.390;2022-11-02T11:08:27;11.97;;;2.66;;
56680;SDS011;42558;52.388;13.390;2022-11-02T11:11:24;11.40;;;2.66;;
56680;SDS011;42558;52.388;13.390;2022-11-02T11:14:06;10.83;;;2.47;;
56680;SDS011;42558;52.388;13.390;2022-11-02T11:17:15;14.06;;;3.42;;
56680;SDS011;42558;52.388;13.390;2022-11-02T11:20:26;14.63;;;3.61;;
56680;SDS011;42558;52.388;13.390;2022-11-02T11:23:20;11.59;;;3.04;;
56680;SDS011;42558;52.388;13.390;2022-11-02T11:26:04;10.26;;;2.85;;
56680;SDS011;42558;52.388;13.390;2022-11-02T11:28:54;11.59;;;3.42;;
56680;SDS011;42558;52.388;13.390;2022-11-02T11:31:25;10.83;;;2.28;;
56680;SDS011;42558;52.388;13.390;2022-11-02T11:33:56;9.12;;;2.28;;
56680;SDS011;42558;52.388;13.390;2022-11-02T11:36:31;14.06;;;2.85;;
56680;SDS011;42558;52.388;13.390;2022-11-02T11:39:24;13.11;;;3.04;;
56680;SDS011;42558;52.388;13.390;2022-11-02T11:41:57;9.12;;;2.47;;
56680;SDS011;42558;52.388;13.390;2022-11-02T11:44:28;13.87;;;3.42;;
56680;SDS011;42558;52.388;13.390;2022-11-02T11:46:59;11.78;;;2.09;;
56680;SDS011;42558;52.388;13.390;2022-11-02T11:49:32;15.58;;;2.47;;
56680;SDS011;42558;52.388;13.390;2022-11-02T11:52:27;14.63;;;3.42;;
56680;SDS011;42558;52.388;13.390;2022-11-02T11:58:05;10.83;;;3.42;;
56680;SDS011;42558;52.388;13.390;2022-11-02T12:00:42;9.50;;;2.28;;
56680;SDS011;42558;52.388;13.390;2022-11-02T12:03:12;11.02;;;3.04;;
56680;SDS011;42558;52.388;13.390;2022-11-02T12:14:18;13.68;;;3.80;;
56680;SDS011;42558;52.388;13.390;2022-11-02T12:23:12;12.35;;;2.66;;
56680;SDS011;42558;52.388;13.390;2022-11-02T12:26:17;13.11;;;3.04;;
56680;SDS011;42558;52.388;13.390;2022-11-02T12:32:18;17.29;;;3.23;;
56680;SDS011;42558;52.388;13.390;2022-11-02T12:41:14;14.25;;;2.85;;
56680;SDS011;42558;52.388;13.390;2022-11-02T12:56:00;12.73;;;2.47;;
56680;SDS011;42558;52.388;13.390;2022-11-02T12:58:36;10.64;;;2.66;;
56680;SDS011;42558;52.388;13.390;2022-11-02T13:01:34;14.44;;;3.80;;
56680;SDS011;42558;52.388;13.390;2022-11-02T13:07:04;7.22;;;2.66;;
56680;SDS011;42558;52.388;13.390;2022-11-02T13:09:46;14.44;;;2.66;;
56680;SDS011;42558;52.388;13.390;2022-11-02T13:12:22;11.59;;;2.85;;
56680;SDS011;42558;52.388;13.390;2022-11-02T13:14:55;10.64;;;2.66;;
56680;SDS011;42558;52.388;13.390;2022-11-02T13:17:39;13.11;;;2.28;;
56680;SDS011;42558;52.388;13.390;2022-11-02T13:20:17;9.69;;;2.85;;
56680;SDS011;42558;52.388;13.390;2022-11-02T13:23:35;7.41;;;2.28;;
56680;SDS011;42558;52.388;13.390;2022-11-02T13:26:31;8.17;;;2.47;;
56680;SDS011;42558;52.388;13.390;2022-11-02T13:29:33;8.17;;;2.47;;
56680;SDS011;42558;52.388;13.390;2022-11-02T13:32:26;11.40;;;2.09;;
56680;SDS011;42558;52.388;13.390;2022-11-02T13:35:11;10.26;;;2.09;;
56680;SDS011;42558;52.388;13.390;2022-11-02T13:41:01;9.69;;;2.28;;
56680;SDS011;42558;52.388;13.390;2022-11-02T13:44:26;6.65;;;2.28;;
56680;SDS011;42558;52.388;13.390;2022-11-02T13:49:48;9.12;;;1.90;;
56680;SDS011;42558;52.388;13.390;2022-11-02T13:52:55;7.22;;;2.09;;
56680;SDS011;42558;52.388;13.390;2022-11-02T13:55:42;8.74;;;2.28;;
56680;SDS011;42558;52.388;13.390;2022-11-02T13:58:31;9.31;;;2.28;;
56680;SDS011;42558;52.388;13.390;2022-11-02T14:01:06;9.50;;;2.28;;
56680;SDS011;42558;52.388;13.390;2022-11-02T14:06:41;10.64;;;2.66;;
56680;SDS011;42558;52.388;13.390;2022-11-02T14:09:27;8.93;;;2.47;;
56680;SDS011;42558;52.388;13.390;2022-11-02T14:25:57;8.17;;;2.28;;
56680;SDS011;42558;52.388;13.390;2022-11-02T14:28:32;8.93;;;2.66;;
56680;SDS011;42558;52.388;13.390;2022-11-02T14:39:47;7.41;;;2.66;;
56680;SDS011;42558;52.388;13.390;2022-11-02T14:42:40;7.60;;;2.09;;
56680;SDS011;42558;52.388;13.390;2022-11-02T14:48:28;10.07;;;3.23;;
56680;SDS011;42558;52.388;13.390;2022-11-02T14:51:03;9.31;;;2.66;;
56680;SDS011;42558;52.388;13.390;2022-11-02T14:53:34;8.17;;;3.23;;
56680;SDS011;42558;52.388;13.390;2022-11-02T14:56:03;22.61;;;3.99;;
56680;SDS011;42558;52.388;13.390;2022-11-02T14:58:39;10.83;;;2.66;;
56680;SDS011;42558;52.388;13.390;2022-11-02T15:01:25;12.35;;;2.28;;
56680;SDS011;42558;52.388;13.390;2022-11-02T15:03:54;8.55;;;2.09;;
56680;SDS011;42558;52.388;13.390;2022-11-02T15:06:27;10.83;;;2.85;;
56680;SDS011;42558;52.388;13.390;2022-11-02T15:08:56;12.54;;;2.47;;
56680;SDS011;42558;52.388;13.390;2022-11-02T15:17:11;9.31;;;2.47;;
56680;SDS011;42558;52.388;13.390;2022-11-02T15:23:04;11.21;;;3.23;;
56680;SDS011;42558;52.388;13.390;2022-11-02T15:25:54;13.87;;;3.42;;
56680;SDS011;42558;52.388;13.390;2022-11-02T15:28:28;7.79;;;2.66;;
56680;SDS011;42558;52.388;13.390;2022-11-02T15:31:11;11.97;;;3.23;;
56680;SDS011;42558;52.388;13.390;2022-11-02T15:33:53;11.40;;;3.42;;
56680;SDS011;42558;52.388;13.390;2022-11-02T15:36:32;9.88;;;2.85;;
56680;SDS011;42558;52.388;13.390;2022-11-02T15:39:07;9.12;;;3.04;;
56680;SDS011;42558;52.388;13.390;2022-11-02T15:45:16;12.92;;;3.04;;
56680;SDS011;42558;52.388;13.390;2022-11-02T15:57:23;10.64;;;2.47;;
56680;SDS011;42558;52.388;13.390;2022-11-02T15:59:58;11.59;;;2.85;;
56680;SDS011;42558;52.388;13.390;2022-11-02T16:02:40;8.93;;;3.23;;
56680;SDS011;42558;52.388;13.390;2022-11-02T16:05:25;8.55;;;2.85;;
56680;SDS011;42558;52.388;13.390;2022-11-02T16:07:57;8.93;;;2.47;;
56680;SDS011;42558;52.388;13.390;2022-11-02T16:10:39;11.21;;;2.47;;
56680;SDS011;42558;52.388;13.390;2022-11-02T16:13:12;11.59;;;3.04;;
56680;SDS011;42558;52.388;13.390;2022-11-02T16:15:48;8.93;;;3.42;;
56680;SDS011;42558;52.388;13.390;2022-11-02T16:18:27;10.64;;;3.23;;
56680;SDS011;42558;52.388;13.390;2022-11-02T16:21:03;7.79;;;2.66;;
56680;SDS011;42558;52.388;13.390;2022-11-02T16:23:54;11.02;;;2.66;;
56680;SDS011;42558;52.388;13.390;2022-11-02T16:26:27;7.41;;;2.66;;
56680;SDS011;42558;52.388;13.390;2022-11-02T16:28:58;14.25;;;2.66;;
56680;SDS011;42558;52.388;13.390;2022-11-02T16:31:31;8.17;;;2.85;;
56680;SDS011;42558;52.388;13.390;2022-11-02T16:36:47;7.41;;;2.47;;
56680;SDS011;42558;52.388;13.390;2022-11-02T16:39:23;7.60;;;2.66;;
56680;SDS011;42558;52.388;13.390;2022-11-02T16:41:58;7.41;;;2.66;;
56680;SDS011;42558;52.388;13.390;2022-11-02T16:44:30;8.74;;;4.37;;
56680;SDS011;42558;52.388;13.390;2022-11-02T16:52:28;12.35;;;3.23;;
56680;SDS011;42558;52.388;13.390;2022-11-02T16:54:59;12.73;;;2.85;;
56680;SDS011;42558;52.388;13.390;2022-11-02T16:57:33;12.16;;;3.04;;
56680;SDS011;42558;52.388;13.390;2022-11-02T17:00:17;10.07;;;3.42;;
56680;SDS011;42558;52.388;13.390;2022-11-02T17:02:48;9.69;;;3.23;;
56680;SDS011;42558;52.388;13.390;2022-11-02T17:05:20;10.45;;;3.23;;
56680;SDS011;42558;52.388;13.390;2022-11-02T17:08:07;12.54;;;3.61;;
56680;SDS011;42558;52.388;13.390;2022-11-02T17:10:57;11.78;;;3.23;;
56680;SDS011;42558;52.388;13.390;2022-11-02T17:13:31;10.64;;;3.61;;
56680;SDS011;42558;52.388;13.390;2022-11-02T17:16:09;10.07;;;4.75;;
56680;SDS011;42558;52.388;13.390;2022-11-02T17:18:40;8.74;;;3.99;;
56680;SDS011;42558;52.388;13.390;2022-11-02T17:23:44;9.69;;;3.80;;
56680;SDS011;42558;52.388;13.390;2022-11-02T17:28:58;9.50;;;4.56;;
56680;SDS011;42558;52.388;13.390;2022-11-02T17:31:33;10.26;;;3.61;;
56680;SDS011;42558;52.388;13.390;2022-11-02T17:34:15;11.97;;;3.42;;
56680;SDS011;42558;52.388;13.390;2022-11-02T17:36:48;10.83;;;3.61;;
56680;SDS011;42558;52.388;13.390;2022-11-02T17:39:19;11.21;;;3.61;;
56680;SDS011;42558;52.388;13.390;2022-11-02T17:41:56;9.50;;;3.99;;
56680;SDS011;42558;52.388;13.390;2022-11-02T17:44:45;7.79;;;3.80;;
56680;SDS011;42558;52.388;13.390;2022-11-02T17:47:17;10.07;;;4.37;;
56680;SDS011;42558;52.388;13.390;2022-11-02T17:49:47;10.26;;;3.80;;
56680;SDS011;42558;52.388;13.390;2022-11-02T17:52:17;10.45;;;3.80;;
56680;SDS011;42558;52.388;13.390;2022-11-02T17:54:47;11.59;;;4.75;;
56680;SDS011;42558;52.388;13.390;2022-11-02T17:57:17;9.31;;;4.56;;